Time;durP1;ratioP1;P1;durP2;ratioP2;P2;SDS_P1;SDS_P2;PMS_P1;PMS_P2;Temp;Humidity;BMP_temperature;BMP_pressure;BME280_temperature;BME280_humidity;BME280_pressure;Samples;Min_cycle;Max_cycle;Signal;HPM_P1;HPM_P2
2023/12/26 00:00:38;;;;;;;1.48;0.30;;;;;;;;;;4938619;28;20063;-59
2023/12/26 00:03:06;;;;;;;1.30;0.30;;;;;;;;;;4954498;28;20044;-59
2023/12/26 00:05:35;;;;;;;0.43;0.27;;;;;;;;;;4942256;28;20125;-59
2023/12/26 00:08:04;;;;;;;1.33;0.45;;;;;;;;;;4947760;28;20679;-59
2023/12/26 00:10:31;;;;;;;0.77;0.30;;;;;;;;;;4947615;28;20063;-59
2023/12/26 00:12:59;;;;;;;0.93;0.40;;;;;;;;;;4946935;28;20063;-59
2023/12/26 00:15:25;;;;;;;;;;;;;;;;;;4944975;28;20058;-59
2023/12/26 00:17:51;;;;;;;2.20;0.30;;;;;;;;;;4944627;28;19922;-59
2023/12/26 00:20:18;;;;;;;1.92;0.45;;;;;;;;;;4946001;28;20051;-59
2023/12/26 00:22:44;;;;;;;1.50;0.50;;;;;;;;;;4941459;28;20130;-59
2023/12/26 00:25:11;;;;;;;3.42;0.60;;;;;;;;;;4952482;28;20122;-59
2023/12/26 00:27:38;;;;;;;1.15;0.45;;;;;;;;;;4927867;29;20123;-59
2023/12/26 00:30:05;;;;;;;0.85;0.30;;;;;;;;;;4949661;28;20421;-59
2023/12/26 00:32:31;;;;;;;1.20;0.40;;;;;;;;;;4938160;28;20051;-59
2023/12/26 00:34:58;;;;;;;1.15;0.60;;;;;;;;;;4952255;28;20039;-59
2023/12/26 00:37:24;;;;;;;1.20;0.40;;;;;;;;;;4945060;28;20047;-59
2023/12/26 00:39:50;;;;;;;0.70;0.43;;;;;;;;;;4943978;28;20126;-59
2023/12/26 00:42:16;;;;;;;0.73;0.30;;;;;;;;;;4942324;28;20114;-59
2023/12/26 00:44:42;;;;;;;0.70;0.40;;;;;;;;;;4946580;28;20143;-59
2023/12/26 00:47:08;;;;;;;1.83;0.38;;;;;;;;;;4944094;28;20106;-59
2023/12/26 00:49:34;;;;;;;3.47;0.30;;;;;;;;;;4940517;28;20098;-59
2023/12/26 00:52:00;;;;;;;2.72;0.70;;;;;;;;;;4954189;28;20038;-61
2023/12/26 00:54:26;;;;;;;1.45;0.32;;;;;;;;;;4939554;28;20058;-61
2023/12/26 00:56:53;;;;;;;3.40;1.27;;;;;;;;;;4931253;29;20039;-60
2023/12/26 00:59:19;;;;;;;1.70;0.50;;;;;;;;;;4931908;29;20062;-60
2023/12/26 01:01:45;;;;;;;3.30;0.38;;;;;;;;;;4938931;28;20486;-60
2023/12/26 01:04:11;;;;;;;0.88;0.30;;;;;;;;;;4949443;28;20058;-60
2023/12/26 01:06:37;;;;;;;0.38;0.22;;;;;;;;;;4942056;28;20039;-60
2023/12/26 01:09:03;;;;;;;1.23;0.20;;;;;;;;;;4944190;28;20059;-60
2023/12/26 01:11:29;;;;;;;1.00;0.30;;;;;;;;;;4943037;28;20047;-61
2023/12/26 01:13:55;;;;;;;1.10;0.28;;;;;;;;;;4942489;28;20122;-60
2023/12/26 01:16:27;;;;;;;2.05;0.38;;;;;;;;;;4941025;28;20126;-60
2023/12/26 01:18:53;;;;;;;2.00;0.40;;;;;;;;;;4931440;29;20047;-60
2023/12/26 01:21:19;;;;;;;0.75;0.30;;;;;;;;;;4941916;28;20103;-60
2023/12/26 01:23:45;;;;;;;1.38;0.38;;;;;;;;;;4941005;28;20082;-60
2023/12/26 01:26:11;;;;;;;2.97;0.30;;;;;;;;;;4941837;28;20043;-60
2023/12/26 01:28:37;;;;;;;3.08;0.20;;;;;;;;;;4927963;28;20159;-60
2023/12/26 01:31:03;;;;;;;6.13;0.50;;;;;;;;;;4924833;28;20122;-60
2023/12/26 01:33:29;;;;;;;1.88;0.40;;;;;;;;;;4925881;29;20071;-60
2023/12/26 01:35:55;;;;;;;2.17;0.20;;;;;;;;;;4944112;28;20050;-60
2023/12/26 01:38:21;;;;;;;3.25;0.38;;;;;;;;;;4943233;28;20101;-60
2023/12/26 01:40:47;;;;;;;3.90;0.40;;;;;;;;;;4940507;28;20047;-60
2023/12/26 01:43:13;;;;;;;2.75;0.30;;;;;;;;;;4945920;28;20178;-60
2023/12/26 01:45:39;;;;;;;4.95;0.52;;;;;;;;;;4941927;28;20035;-60
2023/12/26 01:48:07;;;;;;;5.78;0.52;;;;;;;;;;4940261;28;20043;-60
2023/12/26 01:50:33;;;;;;;3.95;0.52;;;;;;;;;;4944284;28;20073;-60
2023/12/26 01:52:59;;;;;;;4.53;0.30;;;;;;;;;;4937132;28;20046;-60
2023/12/26 01:55:25;;;;;;;2.38;0.38;;;;;;;;;;4933129;28;20044;-60
2023/12/26 01:57:53;;;;;;;1.88;0.30;;;;;;;;;;4948566;28;20083;-60
2023/12/26 02:00:19;;;;;;;15.20;1.02;;;;;;;;;;4929587;28;20043;-60
2023/12/26 02:02:45;;;;;;;4.88;0.75;;;;;;;;;;5032526;23;20138;-58
2023/12/26 02:05:14;;;;;;;3.92;0.50;;;;;;;;;;4969845;28;20093;-58
2023/12/26 02:07:40;;;;;;;3.60;0.50;;;;;;;;;;4986053;28;20064;-58
2023/12/26 02:10:06;;;;;;;7.55;0.63;;;;;;;;;;4978886;28;20068;-58
2023/12/26 02:12:33;;;;;;;6.70;0.43;;;;;;;;;;4976581;28;20109;-59
2023/12/26 02:14:59;;;;;;;2.72;0.40;;;;;;;;;;4979652;28;20076;-57
2023/12/26 02:17:26;;;;;;;14.70;0.75;;;;;;;;;;4976254;28;20042;-57
2023/12/26 02:19:52;;;;;;;12.32;0.77;;;;;;;;;;4968336;28;20054;-58
2023/12/26 02:22:18;;;;;;;5.07;0.60;;;;;;;;;;4968255;28;20598;-59
2023/12/26 02:24:44;;;;;;;7.00;1.50;;;;;;;;;;4972351;28;20044;-60
2023/12/26 02:27:16;;;;;;;8.30;0.75;;;;;;;;;;4953105;28;20113;-60
2023/12/26 02:29:47;;;;;;;6.30;0.82;;;;;;;;;;4954141;28;20500;-60
2023/12/26 02:32:14;;;;;;;10.38;0.77;;;;;;;;;;4963790;28;20130;-60
2023/12/26 02:34:40;;;;;;;6.45;0.50;;;;;;;;;;4974562;28;20043;-60
2023/12/26 02:37:06;;;;;;;5.50;1.10;;;;;;;;;;4974038;28;20046;-60
2023/12/26 02:39:32;;;;;;;7.30;0.80;;;;;;;;;;4962636;28;20051;-59
2023/12/26 02:41:58;;;;;;;8.00;0.88;;;;;;;;;;4969798;28;20038;-60
2023/12/26 02:44:24;;;;;;;5.07;0.70;;;;;;;;;;4970421;28;20097;-60
2023/12/26 02:46:50;;;;;;;8.27;1.15;;;;;;;;;;4974553;28;20419;-60
2023/12/26 02:49:16;;;;;;;11.80;0.93;;;;;;;;;;4965098;28;20137;-60
2023/12/26 02:51:42;;;;;;;6.30;1.15;;;;;;;;;;4983081;28;20053;-60
2023/12/26 02:54:08;;;;;;;13.10;1.02;;;;;;;;;;4959910;28;20130;-60
2023/12/26 02:56:34;;;;;;;5.80;0.95;;;;;;;;;;4967625;28;20126;-60
2023/12/26 02:59:00;;;;;;;10.80;0.90;;;;;;;;;;4970254;28;20089;-60
2023/12/26 03:01:26;;;;;;;9.43;1.40;;;;;;;;;;4970916;28;20137;-60
2023/12/26 03:03:52;;;;;;;10.25;1.50;;;;;;;;;;4973705;28;20054;-60
2023/12/26 03:06:18;;;;;;;7.25;1.20;;;;;;;;;;4963623;28;20047;-60
2023/12/26 03:08:44;;;;;;;5.05;0.73;;;;;;;;;;4966932;28;20408;-60
2023/12/26 03:11:10;;;;;;;9.65;0.90;;;;;;;;;;4959213;28;20507;-60
2023/12/26 03:13:36;;;;;;;8.05;0.85;;;;;;;;;;4957765;28;20046;-60
2023/12/26 03:16:02;;;;;;;13.00;1.10;;;;;;;;;;4953828;28;20485;-60
2023/12/26 03:18:28;;;;;;;15.77;1.33;;;;;;;;;;4951282;28;20572;-60
2023/12/26 03:20:54;;;;;;;4.65;0.95;;;;;;;;;;4951499;28;20071;-60
2023/12/26 03:23:20;;;;;;;6.95;0.80;;;;;;;;;;4945407;28;20394;-59
2023/12/26 03:25:47;;;;;;;5.15;0.90;;;;;;;;;;4944309;28;20333;-60
2023/12/26 03:28:13;;;;;;;3.17;0.30;;;;;;;;;;4942347;28;20039;-60
2023/12/26 03:30:39;;;;;;;2.75;0.30;;;;;;;;;;4974981;28;20073;-60
2023/12/26 03:33:05;;;;;;;6.30;0.93;;;;;;;;;;4968396;28;20393;-60
2023/12/26 03:35:31;;;;;;;5.95;0.73;;;;;;;;;;4971383;28;20054;-60
2023/12/26 03:37:57;;;;;;;4.80;0.75;;;;;;;;;;4973626;28;20406;-60
2023/12/26 03:40:23;;;;;;;6.38;0.30;;;;;;;;;;4965579;28;20119;-60
2023/12/26 03:42:50;;;;;;;4.68;0.38;;;;;;;;;;4966048;28;20399;-60
2023/12/26 03:45:16;;;;;;;10.07;0.90;;;;;;;;;;4960080;28;20043;-60
2023/12/26 03:47:42;;;;;;;6.22;0.70;;;;;;;;;;4958696;28;20401;-60
2023/12/26 03:50:10;;;;;;;5.53;0.43;;;;;;;;;;4956127;28;20039;-61
2023/12/26 03:52:36;;;;;;;8.40;0.63;;;;;;;;;;4950967;28;20059;-59
2023/12/26 03:55:02;;;;;;;8.23;0.70;;;;;;;;;;4950969;28;20119;-59
2023/12/26 03:57:29;;;;;;;5.88;0.47;;;;;;;;;;4945236;28;20612;-60
2023/12/26 03:59:55;;;;;;;4.40;0.55;;;;;;;;;;4943711;28;20079;-60
2023/12/26 04:02:22;;;;;;;6.95;0.88;;;;;;;;;;4967663;28;20136;-60
2023/12/26 04:04:49;;;;;;;5.65;0.65;;;;;;;;;;4977596;28;20042;-60
2023/12/26 04:07:15;;;;;;;8.82;1.02;;;;;;;;;;4979140;28;20105;-60
2023/12/26 04:09:41;;;;;;;5.35;0.85;;;;;;;;;;4968977;28;20047;-60
2023/12/26 04:12:07;;;;;;;9.45;1.10;;;;;;;;;;4974683;28;20050;-59
2023/12/26 04:14:33;;;;;;;9.65;1.08;;;;;;;;;;4961318;28;20047;-59
2023/12/26 04:16:59;;;;;;;16.00;1.40;;;;;;;;;;4970157;28;20046;-59
2023/12/26 04:19:25;;;;;;;7.85;0.90;;;;;;;;;;4957782;28;20049;-57
2023/12/26 04:21:51;;;;;;;11.27;2.03;;;;;;;;;;4962072;28;20046;-57
2023/12/26 04:24:17;;;;;;;5.47;0.80;;;;;;;;;;4952867;28;20043;-57
2023/12/26 04:26:43;;;;;;;11.35;1.00;;;;;;;;;;4954529;28;20101;-57
2023/12/26 04:29:09;;;;;;;15.90;1.38;;;;;;;;;;4955998;28;20101;-59
2023/12/26 04:31:35;;;;;;;13.40;1.48;;;;;;;;;;4965872;28;20085;-57
2023/12/26 04:34:01;;;;;;;12.70;1.40;;;;;;;;;;4974422;28;20078;-57
2023/12/26 04:36:27;;;;;;;13.15;1.42;;;;;;;;;;4977486;28;20046;-57
2023/12/26 04:38:53;;;;;;;10.43;1.00;;;;;;;;;;4967520;28;20098;-57
2023/12/26 04:41:19;;;;;;;10.85;1.33;;;;;;;;;;4980589;28;20046;-57
2023/12/26 04:43:47;;;;;;;7.55;1.27;;;;;;;;;;4963429;28;20739;-57
2023/12/26 04:46:19;;;;;;;10.73;1.10;;;;;;;;;;4968783;28;20048;-57
2023/12/26 04:48:46;;;;;;;9.27;1.17;;;;;;;;;;4979568;28;20046;-57
2023/12/26 04:51:19;;;;;;;15.75;1.45;;;;;;;;;;4976292;28;20050;-59
2023/12/26 04:53:45;;;;;;;10.45;1.45;;;;;;;;;;4967155;28;20042;-59
2023/12/26 04:56:18;;;;;;;13.30;1.60;;;;;;;;;;4972608;28;20053;-60
2023/12/26 04:58:48;;;;;;;14.90;0.93;;;;;;;;;;4962254;28;20053;-60
2023/12/26 05:01:15;;;;;;;17.23;1.77;;;;;;;;;;4965743;28;20039;-60
2023/12/26 05:03:41;;;;;;;14.15;1.50;;;;;;;;;;4964553;28;20055;-59
2023/12/26 05:06:08;;;;;;;15.32;2.35;;;;;;;;;;4971306;28;20050;-59
2023/12/26 05:08:34;;;;;;;13.43;1.30;;;;;;;;;;4967436;28;20111;-59
2023/12/26 05:11:00;;;;;;;12.57;1.42;;;;;;;;;;4947073;28;20054;-59
2023/12/26 05:13:26;;;;;;;7.03;0.88;;;;;;;;;;4952579;28;20046;-59
2023/12/26 05:15:52;;;;;;;8.20;1.50;;;;;;;;;;4977795;28;20047;-59
2023/12/26 05:18:18;;;;;;;12.15;1.00;;;;;;;;;;4976035;28;20121;-59
2023/12/26 05:20:44;;;;;;;13.32;1.55;;;;;;;;;;4974790;28;20086;-59
2023/12/26 05:23:10;;;;;;;14.82;1.88;;;;;;;;;;4975700;28;20073;-59
2023/12/26 05:25:36;;;;;;;11.10;1.20;;;;;;;;;;4969142;28;20042;-59
2023/12/26 05:28:02;;;;;;;8.18;1.00;;;;;;;;;;4954501;28;20054;-59
2023/12/26 05:30:28;;;;;;;11.38;1.25;;;;;;;;;;4966148;28;20552;-59
2023/12/26 05:32:54;;;;;;;9.88;1.00;;;;;;;;;;4965512;28;20053;-59
2023/12/26 05:35:20;;;;;;;8.27;1.00;;;;;;;;;;4969838;28;20034;-59
2023/12/26 05:37:46;;;;;;;5.15;0.93;;;;;;;;;;4964130;28;20038;-59
2023/12/26 05:40:12;;;;;;;6.30;0.82;;;;;;;;;;4971807;28;20042;-59
2023/12/26 05:42:38;;;;;;;23.98;1.35;;;;;;;;;;4970067;28;20057;-59
2023/12/26 05:45:05;;;;;;;7.53;1.30;;;;;;;;;;4973849;28;20162;-59
2023/12/26 05:47:31;;;;;;;12.90;1.88;;;;;;;;;;4962466;28;20085;-59
2023/12/26 05:49:58;;;;;;;12.48;1.13;;;;;;;;;;4961523;28;20035;-58
2023/12/26 05:52:27;;;;;;;10.20;0.90;;;;;;;;;;4980630;28;20054;-59
2023/12/26 05:54:53;;;;;;;10.55;1.20;;;;;;;;;;4978621;28;20066;-59
2023/12/26 05:57:19;;;;;;;9.05;1.63;;;;;;;;;;4976693;28;20149;-59
2023/12/26 05:59:45;;;;;;;9.95;1.83;;;;;;;;;;4972937;28;20147;-59
2023/12/26 06:02:11;;;;;;;8.60;1.58;;;;;;;;;;4976269;28;20718;-58
2023/12/26 06:04:37;;;;;;;9.73;1.25;;;;;;;;;;4972257;28;20134;-59
2023/12/26 06:07:03;;;;;;;8.70;1.13;;;;;;;;;;4975485;28;20042;-59
2023/12/26 06:09:30;;;;;;;7.45;0.90;;;;;;;;;;4964922;28;20054;-58
2023/12/26 06:11:56;;;;;;;7.03;1.67;;;;;;;;;;4970979;28;20050;-58
2023/12/26 06:14:24;;;;;;;6.35;0.65;;;;;;;;;;4960924;28;20114;-59
2023/12/26 06:16:50;;;;;;;13.90;1.83;;;;;;;;;;4970555;28;20054;-59
2023/12/26 06:19:16;;;;;;;6.00;1.83;;;;;;;;;;4955444;28;20050;-60
2023/12/26 06:21:42;;;;;;;7.50;1.05;;;;;;;;;;4956110;28;20818;-58
2023/12/26 06:24:09;;;;;;;13.65;1.50;;;;;;;;;;4950641;28;20070;-58
2023/12/26 06:26:35;;;;;;;13.00;1.30;;;;;;;;;;4947938;28;20062;-58
2023/12/26 06:29:01;;;;;;;8.30;1.02;;;;;;;;;;4953468;28;20772;-58
2023/12/26 06:31:27;;;;;;;8.60;1.70;;;;;;;;;;4960573;28;20061;-58
2023/12/26 06:33:53;;;;;;;10.73;1.08;;;;;;;;;;4969454;28;20062;-58
2023/12/26 06:36:19;;;;;;;11.55;1.50;;;;;;;;;;4974402;28;20035;-59
2023/12/26 06:38:45;;;;;;;14.27;1.15;;;;;;;;;;4967177;28;20062;-58
2023/12/26 06:41:11;;;;;;;7.70;1.25;;;;;;;;;;4968934;28;20042;-58
2023/12/26 06:43:38;;;;;;;8.95;1.10;;;;;;;;;;4962758;28;20054;-58
2023/12/26 06:46:04;;;;;;;10.35;1.20;;;;;;;;;;4962145;28;20434;-58
2023/12/26 06:48:30;;;;;;;10.73;1.73;;;;;;;;;;4959386;28;20039;-58
2023/12/26 06:50:56;;;;;;;14.82;1.73;;;;;;;;;;4954058;28;20106;-58
2023/12/26 06:53:22;;;;;;;7.25;1.02;;;;;;;;;;4954320;28;20050;-58
2023/12/26 06:55:49;;;;;;;9.65;1.10;;;;;;;;;;4947849;28;20047;-58
2023/12/26 06:58:15;;;;;;;10.82;1.33;;;;;;;;;;4947340;28;20081;-58
2023/12/26 07:00:41;;;;;;;12.48;1.48;;;;;;;;;;4943400;28;20154;-58
2023/12/26 07:03:08;;;;;;;13.20;1.38;;;;;;;;;;4988416;28;20559;-58
2023/12/26 07:05:35;;;;;;;13.90;1.60;;;;;;;;;;4975658;28;20624;-58
2023/12/26 07:08:01;;;;;;;9.57;1.58;;;;;;;;;;4961236;28;20082;-58
2023/12/26 07:10:27;;;;;;;10.60;1.55;;;;;;;;;;4971989;28;20042;-59
2023/12/26 07:12:53;;;;;;;13.80;1.33;;;;;;;;;;4951234;28;20102;-58
2023/12/26 07:15:19;;;;;;;13.45;2.30;;;;;;;;;;4969792;28;20756;-59
2023/12/26 07:17:45;;;;;;;12.38;1.23;;;;;;;;;;4958898;28;20045;-57
2023/12/26 07:20:11;;;;;;;8.43;1.20;;;;;;;;;;4969240;28;20125;-58
2023/12/26 07:22:37;;;;;;;11.00;1.60;;;;;;;;;;4955399;28;20062;-58
2023/12/26 07:25:03;;;;;;;14.00;1.17;;;;;;;;;;4965412;28;20365;-58
2023/12/26 07:27:29;;;;;;;14.93;1.55;;;;;;;;;;4950707;28;20651;-59
2023/12/26 07:29:55;;;;;;;13.00;1.27;;;;;;;;;;4957426;28;20508;-59
2023/12/26 07:32:21;;;;;;;13.65;1.40;;;;;;;;;;4963394;28;20394;-60
2023/12/26 07:34:47;;;;;;;13.95;1.30;;;;;;;;;;4979260;28;20614;-59
2023/12/26 07:37:13;;;;;;;11.50;1.33;;;;;;;;;;4973308;28;20093;-59
2023/12/26 07:39:39;;;;;;;14.07;1.52;;;;;;;;;;4973193;28;20046;-59
2023/12/26 07:42:06;;;;;;;12.60;1.60;;;;;;;;;;4965028;28;20122;-59
2023/12/26 07:44:32;;;;;;;14.85;1.77;;;;;;;;;;4968622;28;20456;-58
2023/12/26 07:46:58;;;;;;;11.13;1.55;;;;;;;;;;4963627;28;20252;-59
2023/12/26 07:49:24;;;;;;;10.90;1.63;;;;;;;;;;4962048;28;20472;-59
2023/12/26 07:51:50;;;;;;;12.93;1.55;;;;;;;;;;4959431;28;20493;-59
2023/12/26 07:54:16;;;;;;;19.10;1.75;;;;;;;;;;4953761;28;20051;-59
2023/12/26 07:56:42;;;;;;;17.35;1.73;;;;;;;;;;4956001;28;20043;-58
2023/12/26 07:59:10;;;;;;;11.80;1.48;;;;;;;;;;4954520;28;20130;-59
2023/12/26 08:01:36;;;;;;;16.15;1.30;;;;;;;;;;4961216;28;20113;-58
2023/12/26 08:04:02;;;;;;;14.13;1.83;;;;;;;;;;4938068;28;20110;-59
2023/12/26 08:06:28;;;;;;;13.20;1.60;;;;;;;;;;4932664;29;20065;-59
2023/12/26 08:08:54;;;;;;;7.55;1.23;;;;;;;;;;4935762;29;20052;-60
2023/12/26 08:11:20;;;;;;;14.57;2.28;;;;;;;;;;4921265;29;20076;-58
2023/12/26 08:13:46;;;;;;;13.98;1.33;;;;;;;;;;4927372;29;20059;-58
2023/12/26 08:16:12;;;;;;;13.32;1.98;;;;;;;;;;4923752;29;20051;-58
2023/12/26 08:18:38;;;;;;;24.23;1.92;;;;;;;;;;4935302;29;20126;-59
2023/12/26 08:21:04;;;;;;;13.52;1.58;;;;;;;;;;4920324;28;20079;-59
2023/12/26 08:23:31;;;;;;;13.18;1.35;;;;;;;;;;4923327;29;20247;-58
2023/12/26 08:25:57;;;;;;;13.23;1.50;;;;;;;;;;4915255;28;20037;-58
2023/12/26 08:28:23;;;;;;;15.43;2.30;;;;;;;;;;4915484;29;20075;-59
2023/12/26 08:30:49;;;;;;;16.90;1.60;;;;;;;;;;4926630;28;20043;-59
2023/12/26 08:33:15;;;;;;;21.73;2.05;;;;;;;;;;4934023;29;20555;-58
2023/12/26 08:35:41;;;;;;;16.92;1.90;;;;;;;;;;4931783;28;20040;-58
2023/12/26 08:38:07;;;;;;;12.93;1.20;;;;;;;;;;4941510;28;20047;-58
2023/12/26 08:40:33;;;;;;;22.10;1.80;;;;;;;;;;4929155;29;20119;-58
2023/12/26 08:42:59;;;;;;;9.40;1.20;;;;;;;;;;4927787;29;20449;-58
2023/12/26 08:45:25;;;;;;;14.75;1.95;;;;;;;;;;4922995;28;20044;-58
2023/12/26 08:47:53;;;;;;;9.63;1.60;;;;;;;;;;4926887;29;20043;-58
2023/12/26 08:50:20;;;;;;;7.32;1.40;;;;;;;;;;4919077;29;20055;-58
2023/12/26 08:52:46;;;;;;;17.20;1.77;;;;;;;;;;4917383;29;20044;-58
2023/12/26 08:55:12;;;;;;;13.70;1.80;;;;;;;;;;4914850;29;20040;-58
2023/12/26 08:57:40;;;;;;;14.35;1.88;;;;;;;;;;4917511;29;20046;-58
2023/12/26 09:00:06;;;;;;;14.07;2.05;;;;;;;;;;4925301;28;20043;-58
2023/12/26 09:02:32;;;;;;;11.80;1.38;;;;;;;;;;4947857;28;20047;-58
2023/12/26 09:04:59;;;;;;;14.30;1.42;;;;;;;;;;4974127;28;20141;-59
2023/12/26 09:07:25;;;;;;;10.88;1.45;;;;;;;;;;4958373;28;20046;-59
2023/12/26 09:09:51;;;;;;;12.95;1.50;;;;;;;;;;4960907;28;21581;-59
2023/12/26 09:12:17;;;;;;;15.32;1.80;;;;;;;;;;4957494;28;20066;-59
2023/12/26 09:14:43;;;;;;;13.05;1.90;;;;;;;;;;4951853;28;20062;-60
2023/12/26 09:17:09;;;;;;;8.07;1.65;;;;;;;;;;4953188;28;20031;-59
2023/12/26 09:19:35;;;;;;;15.68;2.90;;;;;;;;;;4946707;28;20464;-59
2023/12/26 09:22:01;;;;;;;11.35;0.95;;;;;;;;;;4946424;28;20826;-59
2023/12/26 09:24:27;;;;;;;18.30;2.33;;;;;;;;;;4942825;28;20039;-60
2023/12/26 09:26:53;;;;;;;17.40;2.05;;;;;;;;;;4956663;28;20120;-59
2023/12/26 09:29:19;;;;;;;15.30;2.08;;;;;;;;;;4952045;28;20364;-59
2023/12/26 09:31:45;;;;;;;18.20;2.13;;;;;;;;;;4961554;28;20690;-59
2023/12/26 09:34:11;;;;;;;16.60;1.70;;;;;;;;;;4972826;28;20046;-59
2023/12/26 09:36:38;;;;;;;11.13;1.70;;;;;;;;;;4974681;28;20046;-57
2023/12/26 09:39:04;;;;;;;10.30;1.33;;;;;;;;;;4969697;28;20058;-57
2023/12/26 09:41:30;;;;;;;8.85;1.33;;;;;;;;;;4972009;28;20054;-57
2023/12/26 09:43:56;;;;;;;9.98;1.80;;;;;;;;;;4960313;28;20074;-56
2023/12/26 09:46:22;;;;;;;16.63;3.42;;;;;;;;;;4967441;28;20077;-56
2023/12/26 09:48:49;;;;;;;13.82;2.00;;;;;;;;;;4956873;28;20045;-56
2023/12/26 09:51:20;;;;;;;15.68;1.60;;;;;;;;;;4959175;28;20050;-56
2023/12/26 09:53:47;;;;;;;16.33;2.22;;;;;;;;;;4949783;28;20051;-56
2023/12/26 09:56:13;;;;;;;14.18;2.13;;;;;;;;;;4951741;28;20485;-57
2023/12/26 09:58:43;;;;;;;13.07;1.98;;;;;;;;;;4949397;28;20043;-57
2023/12/26 10:01:12;;;;;;;14.43;1.52;;;;;;;;;;4953745;28;20055;-56
2023/12/26 10:03:39;;;;;;;17.23;1.92;;;;;;;;;;4944971;28;20087;-57
2023/12/26 10:06:05;;;;;;;9.30;1.90;;;;;;;;;;4942995;28;20051;-57
2023/12/26 10:08:32;;;;;;;10.80;1.48;;;;;;;;;;4975718;28;20103;-57
2023/12/26 10:10:58;;;;;;;14.52;2.47;;;;;;;;;;4972193;28;20069;-56
2023/12/26 10:13:25;;;;;;;16.55;1.77;;;;;;;;;;4971520;28;20061;-56
2023/12/26 10:15:51;;;;;;;13.98;1.63;;;;;;;;;;4970555;28;20050;-57
2023/12/26 10:18:17;;;;;;;10.20;1.70;;;;;;;;;;4966232;28;20047;-57
2023/12/26 10:20:43;;;;;;;22.13;2.03;;;;;;;;;;4972558;28;20065;-57
2023/12/26 10:23:12;;;;;;;10.23;1.25;;;;;;;;;;4975976;28;20047;-57
2023/12/26 10:25:38;;;;;;;13.45;1.45;;;;;;;;;;4966544;28;20050;-57
2023/12/26 10:28:04;;;;;;;9.52;2.08;;;;;;;;;;4946934;28;20046;-57
2023/12/26 10:30:30;;;;;;;17.25;1.73;;;;;;;;;;4962697;28;20035;-59
2023/12/26 10:33:03;;;;;;;15.55;1.85;;;;;;;;;;4965114;28;20492;-57
2023/12/26 10:35:30;;;;;;;10.32;1.27;;;;;;;;;;4974286;28;20053;-57
2023/12/26 10:37:57;;;;;;;11.25;2.15;;;;;;;;;;4974247;28;20042;-57
2023/12/26 10:40:23;;;;;;;18.63;2.40;;;;;;;;;;4953022;28;20154;-57
2023/12/26 10:42:51;;;;;;;11.35;2.30;;;;;;;;;;4961482;28;20050;-57
2023/12/26 10:45:20;;;;;;;23.70;2.20;;;;;;;;;;4977920;28;20050;-56
2023/12/26 10:47:48;;;;;;;22.98;2.17;;;;;;;;;;4974951;28;20046;-57
2023/12/26 10:50:17;;;;;;;16.05;1.85;;;;;;;;;;4977636;28;20050;-58
2023/12/26 10:53:04;;;;;;;21.67;2.88;;;;;;;;;;4963854;28;20051;-58
2023/12/26 10:55:32;;;;;;;15.95;2.03;;;;;;;;;;4978310;28;20143;-58
2023/12/26 10:58:17;;;;;;;17.73;2.00;;;;;;;;;;4977984;28;20042;-58
2023/12/26 13:51:57;;;;;;;8.00;1.20;;;;;;;;;;4952203;28;20115;-59
2023/12/26 13:54:23;;;;;;;14.48;1.38;;;;;;;;;;4952031;28;20129;-59
2023/12/26 13:56:49;;;;;;;8.43;0.60;;;;;;;;;;4947499;28;20078;-59
2023/12/26 13:59:15;;;;;;;6.63;0.73;;;;;;;;;;4945487;28;20129;-59
2023/12/26 14:01:41;;;;;;;7.00;0.60;;;;;;;;;;4955298;28;20750;-59
2023/12/26 14:04:08;;;;;;;4.85;0.60;;;;;;;;;;4980149;28;20512;-59
2023/12/26 14:06:35;;;;;;;9.15;0.65;;;;;;;;;;4973402;28;20050;-59
2023/12/26 14:09:01;;;;;;;4.60;0.43;;;;;;;;;;4976009;28;20039;-59
2023/12/26 14:11:27;;;;;;;4.40;0.43;;;;;;;;;;4964769;28;20054;-59
2023/12/26 14:13:53;;;;;;;2.80;0.60;;;;;;;;;;4971347;28;20508;-59
2023/12/26 14:16:21;;;;;;;6.20;0.50;;;;;;;;;;4957091;28;20588;-59
2023/12/26 14:18:47;;;;;;;6.40;0.50;;;;;;;;;;4966268;28;20128;-59
2023/12/26 14:21:14;;;;;;;4.07;0.32;;;;;;;;;;4952920;28;20469;-60
2023/12/26 14:23:40;;;;;;;7.13;0.50;;;;;;;;;;4957514;28;20042;-59
2023/12/26 14:26:06;;;;;;;8.98;0.50;;;;;;;;;;4948181;28;20082;-59
2023/12/26 14:28:32;;;;;;;5.10;0.52;;;;;;;;;;4953840;28;20050;-58
2023/12/26 14:30:59;;;;;;;4.63;0.38;;;;;;;;;;4965283;28;20432;-59
2023/12/26 14:33:25;;;;;;;8.23;0.37;;;;;;;;;;4979079;28;20050;-58
2023/12/26 14:35:51;;;;;;;6.72;0.93;;;;;;;;;;4973330;28;20306;-58
2023/12/26 14:38:36;;;;;;;3.67;0.50;;;;;;;;;;4976152;28;20058;-59
2023/12/26 14:41:20;;;;;;;3.95;0.88;;;;;;;;;;4968487;28;20085;-58
2023/12/26 14:44:05;;;;;;;2.67;0.20;;;;;;;;;;4964038;28;20035;-60
2023/12/26 14:46:50;;;;;;;3.30;0.40;;;;;;;;;;4961996;28;20484;-58
2023/12/26 14:49:34;;;;;;;4.85;0.38;;;;;;;;;;4957266;28;20035;-59
2023/12/26 14:52:19;;;;;;;7.53;0.50;;;;;;;;;;4953501;28;20123;-58
2023/12/26 14:55:03;;;;;;;5.57;0.65;;;;;;;;;;4955379;28;20074;-59
2023/12/26 14:57:48;;;;;;;2.53;0.28;;;;;;;;;;4946271;28;20045;-58
2023/12/26 15:00:34;;;;;;;3.17;0.50;;;;;;;;;;4944702;28;20107;-58
2023/12/26 15:03:00;;;;;;;8.80;0.63;;;;;;;;;;4946965;28;20051;-58
2023/12/26 15:05:26;;;;;;;4.05;0.57;;;;;;;;;;4978463;28;20046;-59
2023/12/26 15:07:52;;;;;;;6.40;0.40;;;;;;;;;;4971780;28;20126;-59
2023/12/26 15:10:19;;;;;;;3.00;0.50;;;;;;;;;;4974808;28;20266;-59
2023/12/26 15:12:45;;;;;;;4.43;0.40;;;;;;;;;;4966039;28;20050;-59
2023/12/26 15:15:11;;;;;;;5.97;0.50;;;;;;;;;;4968162;28;20089;-59
2023/12/26 15:17:37;;;;;;;6.72;0.60;;;;;;;;;;4960549;28;20051;-58
2023/12/26 15:20:03;;;;;;;4.22;0.40;;;;;;;;;;4959846;28;21707;-58
2023/12/26 15:22:29;;;;;;;6.82;0.32;;;;;;;;;;4956584;28;20083;-59
2023/12/26 15:24:55;;;;;;;10.77;0.60;;;;;;;;;;4951932;28;20254;-59
2023/12/26 15:27:21;;;;;;;4.93;0.68;;;;;;;;;;4952508;28;20039;-58
2023/12/26 15:29:48;;;;;;;11.50;0.68;;;;;;;;;;4956657;28;20700;-59
2023/12/26 15:32:14;;;;;;;9.57;0.73;;;;;;;;;;4961450;28;20147;-58
2023/12/26 15:34:40;;;;;;;7.40;1.27;;;;;;;;;;4976744;28;20086;-58
2023/12/26 15:37:06;;;;;;;3.80;0.60;;;;;;;;;;4970080;28;20072;-59
2023/12/26 15:39:32;;;;;;;9.73;1.75;;;;;;;;;;4970294;28;20046;-58
2023/12/26 15:41:58;;;;;;;7.25;1.45;;;;;;;;;;4969740;28;20061;-59
2023/12/26 15:44:24;;;;;;;8.73;1.23;;;;;;;;;;4963296;28;20050;-59
2023/12/26 15:46:50;;;;;;;7.10;0.55;;;;;;;;;;4958649;28;20054;-59
2023/12/26 15:49:16;;;;;;;6.80;0.70;;;;;;;;;;4955062;28;20047;-58
2023/12/26 15:51:42;;;;;;;6.93;0.90;;;;;;;;;;4956164;28;20051;-58
2023/12/26 15:54:08;;;;;;;4.68;1.00;;;;;;;;;;4947891;28;20056;-59
2023/12/26 15:56:34;;;;;;;10.75;0.70;;;;;;;;;;4949843;28;20058;-59
2023/12/26 15:59:00;;;;;;;8.02;1.10;;;;;;;;;;4948100;28;20675;-59
2023/12/26 16:01:27;;;;;;;8.90;1.80;;;;;;;;;;4953613;28;20047;-59
2023/12/26 16:03:53;;;;;;;11.32;0.80;;;;;;;;;;4982051;28;20065;-59
2023/12/26 16:06:21;;;;;;;6.03;0.60;;;;;;;;;;4975006;28;20428;-59
2023/12/26 16:08:47;;;;;;;10.48;0.95;;;;;;;;;;4978649;28;20046;-59
2023/12/26 16:11:13;;;;;;;4.70;0.50;;;;;;;;;;4966276;28;20126;-59
2023/12/26 16:13:40;;;;;;;8.02;1.10;;;;;;;;;;4973549;28;20042;-58
2023/12/26 16:16:06;;;;;;;5.70;0.73;;;;;;;;;;4961250;28;20035;-58
2023/12/26 16:18:32;;;;;;;6.13;0.63;;;;;;;;;;4966282;28;20061;-58
2023/12/26 16:20:58;;;;;;;8.07;0.80;;;;;;;;;;4957592;28;20130;-58
2023/12/26 16:23:25;;;;;;;8.60;1.40;;;;;;;;;;4957628;28;20119;-58
2023/12/26 16:25:52;;;;;;;10.15;2.35;;;;;;;;;;4952118;28;20067;-59
2023/12/26 16:28:18;;;;;;;9.45;1.00;;;;;;;;;;4953082;28;20043;-58
2023/12/26 16:30:44;;;;;;;8.13;0.90;;;;;;;;;;4965448;28;20047;-59
2023/12/26 16:33:10;;;;;;;4.22;0.70;;;;;;;;;;4971595;28;20649;-59
2023/12/26 16:35:36;;;;;;;6.40;0.68;;;;;;;;;;4974088;28;20039;-58
2023/12/26 16:38:02;;;;;;;5.15;0.60;;;;;;;;;;4976957;28;20034;-59
2023/12/26 16:40:29;;;;;;;11.07;0.60;;;;;;;;;;4968120;28;20398;-59
2023/12/26 16:42:55;;;;;;;13.63;1.15;;;;;;;;;;4969888;28;20121;-59
2023/12/26 16:45:21;;;;;;;5.95;0.38;;;;;;;;;;4963896;28;20210;-60
2023/12/26 16:47:47;;;;;;;9.95;1.00;;;;;;;;;;4962898;28;20039;-59
2023/12/26 16:50:14;;;;;;;8.27;0.90;;;;;;;;;;4957338;28;20035;-59
2023/12/26 16:52:41;;;;;;;8.05;1.23;;;;;;;;;;4954190;28;20051;-59
2023/12/26 16:55:07;;;;;;;7.18;1.02;;;;;;;;;;4952329;28;20042;-58
2023/12/26 16:57:33;;;;;;;5.03;0.80;;;;;;;;;;4947338;28;20047;-58
2023/12/26 16:59:59;;;;;;;9.00;0.85;;;;;;;;;;4945962;28;20040;-58
2023/12/26 17:02:25;;;;;;;11.23;1.38;;;;;;;;;;4967096;28;20109;-59
2023/12/26 17:04:51;;;;;;;9.68;0.65;;;;;;;;;;4977157;28;20054;-60
2023/12/26 17:07:17;;;;;;;7.32;0.80;;;;;;;;;;4977698;28;20121;-58
2023/12/26 17:09:43;;;;;;;3.42;0.50;;;;;;;;;;4968795;28;20039;-60
2023/12/26 17:12:09;;;;;;;8.15;1.65;;;;;;;;;;4973600;28;20038;-59
2023/12/26 17:14:36;;;;;;;10.32;1.20;;;;;;;;;;4960777;28;20051;-59
2023/12/26 17:17:02;;;;;;;12.73;1.27;;;;;;;;;;4969727;28;20463;-59
2023/12/26 17:19:29;;;;;;;8.90;1.40;;;;;;;;;;4955928;28;20051;-59
2023/12/26 17:21:55;;;;;;;8.70;1.60;;;;;;;;;;4961395;28;20042;-59
2023/12/26 17:24:22;;;;;;;15.32;2.03;;;;;;;;;;4951257;28;20122;-59
2023/12/26 17:26:48;;;;;;;12.30;0.90;;;;;;;;;;4953361;28;20409;-59